createdAt,value
2018-12-15T00:01:55.922Z,13.70
2018-12-15T00:04:27.828Z,13.90
2018-12-15T00:07:00.032Z,12.43
2018-12-15T00:09:32.037Z,13.10
2018-12-15T00:12:04.141Z,13.47
2018-12-15T00:14:36.237Z,13.23
2018-12-15T00:17:10.338Z,12.10
2018-12-15T00:19:42.811Z,13.17
2018-12-15T00:22:14.972Z,14.07
2018-12-15T00:24:47.120Z,14.20
2018-12-15T00:27:19.206Z,12.60
2018-12-15T00:29:51.185Z,13.10
2018-12-15T00:32:23.377Z,13.33
2018-12-15T00:34:55.387Z,14.37
2018-12-15T00:37:27.544Z,13.47
2018-12-15T00:39:59.263Z,10.83
2018-12-15T00:42:34.094Z,12.50
2018-12-15T00:45:04.966Z,12.97
2018-12-15T00:47:37.204Z,13.50
2018-12-15T00:50:09.083Z,11.60
2018-12-15T00:52:41.001Z,13.63
2018-12-15T00:55:13.173Z,15.37
2018-12-15T00:57:45.180Z,13.13
2018-12-15T01:00:18.968Z,11.40
2018-12-15T01:02:51.550Z,13.20
2018-12-15T01:05:23.644Z,12.97
2018-12-15T01:07:56.177Z,12.50
2018-12-15T01:10:28.938Z,15.37
2018-12-15T01:13:01.218Z,14.30
2018-12-15T01:15:39.223Z,15.10
2018-12-15T01:18:09.977Z,13.03
2018-12-15T01:20:43.131Z,14.13
2018-12-15T01:23:16.020Z,15.07
2018-12-15T01:25:46.550Z,12.93
2018-12-15T01:28:18.492Z,14.47
2018-12-15T01:30:50.775Z,15.03
2018-12-15T01:33:22.808Z,12.03
2018-12-15T01:35:55.129Z,15.47
2018-12-15T01:38:28.052Z,14.00
2018-12-15T01:41:00.615Z,13.93
2018-12-15T01:43:33.244Z,14.10
2018-12-15T01:48:34.414Z,14.70
2018-12-15T01:51:07.374Z,13.13
2018-12-15T01:53:40.399Z,13.17
2018-12-15T01:56:13.412Z,12.60
2018-12-15T01:58:46.138Z,16.47
2018-12-15T02:01:18.199Z,13.73
2018-12-15T02:03:50.049Z,13.70
2018-12-15T02:06:24.520Z,11.67
2018-12-15T02:08:57.183Z,15.03
2018-12-15T02:11:27.392Z,15.03
2018-12-15T02:13:59.708Z,14.17
2018-12-15T02:16:31.556Z,13.20
2018-12-15T02:19:03.848Z,14.50
2018-12-15T02:21:36.159Z,15.83
2018-12-15T02:24:08.332Z,14.73
2018-12-15T02:26:40.239Z,14.27
2018-12-15T02:29:14.579Z,16.77
2018-12-15T02:31:48.028Z,14.13
2018-12-15T02:34:20.869Z,16.20
2018-12-15T02:36:52.724Z,14.93
2018-12-15T02:39:24.693Z,15.07
2018-12-15T02:41:56.652Z,15.07
2018-12-15T02:44:29.151Z,15.90
2018-12-15T02:51:58.152Z,13.03
2018-12-15T02:54:30.152Z,13.57
2018-12-15T02:57:02.196Z,16.63
2018-12-15T02:59:34.149Z,15.40
2018-12-15T03:02:06.230Z,15.20
2018-12-15T03:04:38.821Z,15.10
2018-12-15T03:07:11.428Z,17.03
2018-12-15T03:09:43.437Z,14.70
2018-12-15T03:12:15.537Z,15.13
2018-12-15T03:14:47.642Z,15.53
2018-12-15T03:17:19.739Z,12.07
2018-12-15T03:19:51.641Z,13.00
2018-12-15T03:22:23.637Z,13.23
2018-12-15T03:24:55.745Z,14.57
2018-12-15T03:27:27.897Z,15.97
2018-12-15T03:29:59.888Z,15.00
2018-12-15T03:32:31.914Z,14.53
2018-12-15T03:35:04.088Z,14.87
2018-12-15T03:37:36.792Z,14.67
2018-12-15T03:40:09.084Z,15.07
2018-12-15T03:42:41.585Z,15.73
2018-12-15T03:45:13.371Z,13.77
2018-12-15T03:47:45.375Z,16.10
2018-12-15T03:52:46.270Z,16.07
2018-12-15T03:55:18.348Z,13.03
2018-12-15T03:57:50.404Z,13.90
2018-12-15T04:00:22.687Z,13.10
2018-12-15T04:02:54.724Z,14.83
2018-12-15T04:05:27.161Z,14.80
2018-12-15T04:07:59.163Z,13.73
2018-12-15T04:10:31.164Z,13.60
2018-12-15T04:13:03.384Z,16.30
2018-12-15T04:15:35.624Z,13.50
2018-12-15T04:18:09.981Z,13.73
2018-12-15T04:20:43.243Z,15.57
2018-12-15T04:23:15.795Z,12.63
2018-12-15T04:25:46.585Z,14.57
2018-12-15T04:28:16.559Z,17.63
2018-12-15T04:30:48.744Z,12.70
2018-12-15T04:33:20.932Z,15.00
2018-12-15T04:35:52.784Z,12.10
2018-12-15T04:38:24.581Z,16.23
2018-12-15T04:40:57.013Z,13.87
2018-12-15T04:43:29.555Z,15.50
2018-12-15T04:46:01.716Z,16.67
2018-12-15T04:48:34.011Z,14.63
2018-12-15T04:51:05.914Z,15.60
2018-12-15T04:53:38.201Z,14.53
2018-12-15T04:56:10.212Z,13.60
2018-12-15T04:58:42.928Z,12.67
2018-12-15T05:01:15.272Z,11.80
2018-12-15T05:03:47.361Z,14.03
2018-12-15T05:06:19.556Z,17.13
2018-12-15T05:08:51.645Z,14.23
2018-12-15T05:11:23.623Z,14.47
2018-12-15T05:13:55.380Z,13.93
2018-12-15T05:16:27.662Z,15.40
2018-12-15T05:18:57.822Z,14.57
2018-12-15T05:21:29.725Z,15.07
2018-12-15T05:24:01.848Z,14.27
2018-12-15T05:26:33.824Z,14.63
2018-12-15T05:29:05.912Z,16.70
2018-12-15T05:31:37.867Z,13.83
2018-12-15T05:34:09.708Z,13.10
2018-12-15T05:36:44.188Z,14.20
2018-12-15T05:39:16.889Z,14.67
2018-12-15T05:41:49.014Z,16.20
2018-12-15T05:44:21.093Z,13.13
2018-12-15T05:46:55.931Z,14.13
2018-12-15T05:49:28.418Z,15.33
2018-12-15T05:52:00.723Z,16.13
2018-12-15T05:54:32.513Z,11.83
2018-12-15T05:57:05.044Z,13.57
2018-12-15T05:59:36.864Z,14.10
2018-12-15T06:02:11.525Z,13.93
2018-12-15T06:04:44.211Z,15.47
2018-12-15T06:07:16.505Z,17.87
2018-12-15T06:09:48.584Z,13.57
2018-12-15T06:12:20.561Z,13.77
2018-12-15T06:14:52.711Z,15.90
2018-12-15T06:17:24.792Z,16.83
2018-12-15T06:19:56.743Z,15.40
2018-12-15T06:22:28.853Z,13.07
2018-12-15T06:25:00.917Z,15.33
2018-12-15T06:27:33.023Z,12.07
2018-12-15T06:30:06.445Z,15.20
2018-12-15T06:32:39.087Z,16.07
2018-12-15T06:35:11.169Z,15.27
2018-12-15T06:37:43.520Z,14.77
2018-12-15T06:40:15.771Z,17.20
2018-12-15T06:42:48.508Z,15.60
2018-12-15T06:45:20.776Z,16.17
2018-12-15T06:47:52.982Z,15.70
2018-12-15T06:50:24.724Z,14.80
2018-12-15T06:52:56.755Z,14.63
2018-12-15T06:55:28.800Z,16.50
2018-12-15T06:58:01.237Z,17.87
2018-12-15T07:00:33.293Z,15.53
2018-12-15T07:03:05.163Z,16.57
2018-12-15T07:05:39.997Z,14.90
2018-12-15T07:08:12.464Z,15.97
2018-12-15T07:10:44.455Z,15.83
2018-12-15T07:13:16.595Z,13.73
2018-12-15T07:15:49.340Z,17.70
2018-12-15T07:18:21.534Z,17.50
2018-12-15T07:20:53.667Z,15.30
2018-12-15T07:23:25.851Z,15.93
2018-12-15T07:25:58.099Z,16.50
2018-12-15T07:28:29.896Z,16.10
2018-12-15T07:31:01.912Z,18.10
2018-12-15T07:33:34.072Z,18.60
2018-12-15T07:36:06.304Z,17.40
2018-12-15T07:38:38.579Z,15.63
2018-12-15T07:41:10.644Z,17.00
2018-12-15T07:43:42.481Z,18.73
2018-12-15T07:46:14.937Z,14.87
2018-12-15T07:48:51.371Z,19.70
2018-12-15T07:51:20.756Z,17.60
2018-12-15T07:53:52.758Z,20.93
2018-12-15T07:56:26.948Z,18.77
2018-12-15T07:58:58.828Z,17.47
2018-12-15T08:01:30.997Z,16.07
2018-12-15T08:04:02.893Z,17.53
2018-12-15T08:06:35.056Z,18.13
2018-12-15T08:09:07.651Z,18.70
2018-12-15T08:12:48.731Z,18.30
2018-12-15T08:15:19.427Z,17.30
2018-12-15T08:17:51.316Z,18.80
2018-12-15T08:20:23.459Z,18.87
2018-12-15T08:22:55.698Z,20.43
2018-12-15T08:25:30.079Z,18.40
2018-12-15T08:28:02.841Z,19.97
2018-12-15T08:30:34.753Z,16.63
2018-12-15T08:33:06.953Z,20.00
2018-12-15T08:35:39.137Z,17.23
2018-12-15T08:38:11.242Z,20.03
2018-12-15T08:40:43.423Z,17.57
2018-12-15T08:43:15.911Z,16.67
2018-12-15T08:45:47.904Z,17.47
2018-12-15T08:48:20.105Z,19.90
2018-12-15T08:50:52.436Z,18.83
2018-12-15T08:53:24.456Z,21.07
2018-12-15T08:55:56.282Z,17.17
2018-12-15T08:58:28.388Z,20.63
2018-12-15T09:01:01.157Z,19.27
2018-12-15T09:03:34.303Z,17.70
2018-12-15T09:06:06.652Z,19.37
2018-12-15T09:08:39.468Z,19.20
2018-12-15T09:11:11.493Z,18.87
2018-12-15T09:13:44.575Z,19.33
2018-12-15T09:16:16.552Z,18.07
2018-12-15T09:18:48.863Z,21.17
2018-12-15T09:21:20.847Z,19.73
2018-12-15T09:23:52.801Z,20.50
2018-12-15T09:26:22.931Z,19.10
2018-12-15T09:28:55.776Z,19.20
2018-12-15T09:31:28.167Z,17.87
2018-12-15T09:34:00.211Z,20.07
2018-12-15T09:36:30.495Z,17.40
2018-12-15T09:39:02.843Z,20.57
2018-12-15T09:41:34.993Z,19.43
2018-12-15T09:44:07.551Z,15.83
2018-12-15T09:46:40.541Z,18.73
2018-12-15T09:49:17.703Z,20.23
2018-12-15T09:51:47.770Z,17.07
2018-12-15T09:54:19.792Z,25.77
2018-12-15T09:56:51.882Z,19.30
2018-12-15T09:59:23.727Z,18.03
2018-12-15T10:01:58.071Z,17.50
2018-12-15T10:04:30.835Z,19.33
2018-12-15T10:07:02.703Z,18.43
2018-12-15T10:09:34.855Z,16.50
2018-12-15T10:12:06.798Z,15.80
2018-12-15T10:14:39.203Z,14.40
2018-12-15T10:17:11.837Z,17.73
2018-12-15T10:19:44.340Z,16.70
2018-12-15T10:22:16.368Z,14.70
2018-12-15T10:24:48.433Z,16.70
2018-12-15T10:27:20.406Z,17.17
2018-12-15T10:29:57.887Z,17.60
2018-12-15T10:32:36.092Z,16.80
2018-12-15T10:35:08.558Z,18.63
2018-12-15T10:37:40.652Z,15.67
2018-12-15T10:40:12.852Z,17.53
2018-12-15T10:42:44.840Z,15.63
2018-12-15T10:45:17.492Z,18.07
2018-12-15T10:47:49.991Z,18.10
2018-12-15T10:50:23.062Z,20.67
2018-12-15T10:52:55.945Z,16.83
2018-12-15T10:55:28.267Z,14.30
2018-12-15T10:58:01.023Z,17.07
2018-12-15T11:00:38.708Z,19.87
2018-12-15T11:08:06.940Z,13.33
2018-12-15T11:10:39.855Z,16.13
2018-12-15T11:13:11.823Z,15.80
2018-12-15T11:15:43.979Z,15.70
2018-12-15T11:18:14.072Z,17.53
2018-12-15T11:20:46.233Z,17.77
2018-12-15T11:23:18.196Z,15.20
2018-12-15T11:25:50.241Z,16.10
2018-12-15T11:28:22.423Z,15.73
2018-12-15T11:30:54.395Z,12.10
2018-12-15T11:33:27.220Z,14.30
2018-12-15T11:35:59.453Z,14.87
2018-12-15T11:38:32.307Z,13.70
2018-12-15T11:41:04.464Z,14.60
2018-12-15T11:43:36.602Z,14.63
2018-12-15T11:46:08.139Z,15.30
2018-12-15T11:48:40.528Z,16.40
2018-12-15T11:51:12.736Z,17.53
2018-12-15T11:53:45.563Z,14.57
2018-12-15T11:56:19.394Z,15.80
2018-12-15T11:58:51.726Z,14.63
2018-12-15T12:01:24.003Z,17.33
2018-12-15T12:03:55.964Z,15.10
2018-12-15T12:06:28.061Z,15.70
2018-12-15T12:11:29.098Z,14.07
2018-12-15T12:14:01.920Z,14.93
2018-12-15T12:16:33.791Z,16.30
2018-12-15T12:19:05.899Z,14.97
2018-12-15T12:21:37.854Z,14.07
2018-12-15T12:24:09.977Z,13.90
2018-12-15T12:26:42.659Z,14.53
2018-12-15T12:29:14.799Z,14.03
2018-12-15T12:31:46.655Z,15.63
2018-12-15T12:34:19.000Z,13.43
2018-12-15T12:36:50.029Z,16.03
2018-12-15T12:39:22.727Z,17.13
2018-12-15T12:41:54.736Z,13.07
2018-12-15T12:44:26.614Z,15.70
2018-12-15T12:46:58.703Z,14.77
2018-12-15T12:49:30.953Z,17.57
2018-12-15T12:52:02.988Z,15.47
2018-12-15T12:54:35.291Z,16.13
2018-12-15T12:57:07.959Z,14.00
2018-12-15T12:59:40.892Z,16.73
2018-12-15T13:02:13.747Z,16.83
2018-12-15T13:04:47.124Z,17.30
2018-12-15T13:07:18.984Z,9.37
2018-12-15T13:12:24.108Z,16.10
2018-12-15T13:14:56.441Z,15.43
2018-12-15T13:17:28.659Z,16.03
2018-12-15T13:20:03.809Z,13.93
2018-12-15T13:22:35.425Z,16.17
2018-12-15T13:25:07.421Z,15.97
2018-12-15T13:27:39.680Z,14.40
2018-12-15T13:30:11.601Z,15.37
2018-12-15T13:32:43.568Z,14.37
2018-12-15T13:35:15.957Z,16.53
2018-12-15T13:37:48.728Z,16.17
2018-12-15T13:40:20.809Z,16.63
2018-12-15T13:42:52.861Z,14.93
2018-12-15T13:45:25.003Z,14.20
2018-12-15T13:47:57.220Z,15.70
2018-12-15T13:50:31.767Z,17.97
2018-12-15T13:53:04.271Z,18.97
2018-12-15T13:55:36.917Z,17.47
2018-12-15T13:58:09.120Z,17.83
2018-12-15T14:00:41.457Z,16.33
2018-12-15T14:03:14.215Z,18.27
2018-12-15T14:05:46.052Z,19.53
2018-12-15T14:08:18.562Z,19.03
2018-12-15T14:15:46.951Z,17.60
2018-12-15T14:18:19.348Z,19.00
2018-12-15T14:20:51.264Z,18.03
2018-12-15T14:23:24.188Z,20.33
2018-12-15T14:25:55.054Z,18.27
2018-12-15T14:28:27.995Z,18.97
2018-12-15T14:31:00.070Z,16.97
2018-12-15T14:33:32.160Z,16.27
2018-12-15T14:36:05.192Z,19.40
2018-12-15T14:38:43.584Z,18.70
2018-12-15T14:41:16.297Z,15.93
2018-12-15T14:43:48.378Z,17.70
2018-12-15T14:46:20.655Z,16.97
2018-12-15T14:48:53.287Z,16.13
2018-12-15T14:51:26.705Z,17.13
2018-12-15T14:53:59.408Z,21.27
2018-12-15T14:56:31.739Z,18.70
2018-12-15T14:59:04.280Z,19.47
2018-12-15T15:01:37.301Z,19.67
2018-12-15T15:04:10.124Z,17.00
2018-12-15T15:06:42.172Z,19.00
2018-12-15T15:09:14.154Z,20.33
2018-12-15T15:11:46.305Z,18.53
2018-12-15T15:14:18.276Z,21.10
2018-12-15T15:24:20.599Z,17.43
2018-12-15T15:26:51.172Z,18.33
2018-12-15T15:29:24.165Z,14.43
2018-12-15T15:31:56.345Z,15.23
2018-12-15T15:34:30.313Z,17.30
2018-12-15T15:37:03.482Z,19.27
2018-12-15T15:39:36.368Z,18.73
2018-12-15T15:42:09.568Z,15.77
2018-12-15T15:44:42.888Z,17.43
2018-12-15T15:47:15.848Z,18.47
2018-12-15T15:49:48.864Z,17.90
2018-12-15T15:52:22.312Z,16.70
2018-12-15T15:54:54.981Z,16.50
2018-12-15T15:57:28.077Z,17.47
2018-12-15T16:00:01.391Z,17.17
2018-12-15T16:02:34.488Z,19.03
2018-12-15T16:05:07.289Z,17.50
2018-12-15T16:07:40.131Z,17.93
2018-12-15T16:10:13.292Z,17.13
2018-12-15T16:12:46.199Z,16.47
2018-12-15T16:15:19.272Z,18.37
2018-12-15T16:17:52.238Z,17.80
2018-12-15T16:20:26.087Z,17.73
2018-12-15T16:22:59.199Z,17.23
2018-12-15T16:25:32.394Z,12.03
2018-12-15T16:28:04.781Z,17.43
2018-12-15T16:30:37.731Z,18.17
2018-12-15T16:33:10.762Z,17.43
2018-12-15T16:35:44.118Z,14.80
2018-12-15T16:38:17.342Z,13.57
2018-12-15T16:40:50.723Z,16.60
2018-12-15T16:43:23.522Z,17.73
2018-12-15T16:45:57.843Z,16.60
2018-12-15T16:48:30.680Z,17.53
2018-12-15T16:51:02.932Z,16.83
2018-12-15T16:53:35.069Z,14.90
2018-12-15T16:56:11.931Z,15.07
2018-12-15T16:58:44.516Z,15.87
2018-12-15T17:01:17.680Z,18.27
2018-12-15T17:03:50.546Z,21.70
2018-12-15T17:06:23.754Z,17.83
2018-12-15T17:08:56.958Z,18.87
2018-12-15T17:11:30.016Z,17.33
2018-12-15T17:14:02.258Z,20.50
2018-12-15T17:16:34.459Z,17.63
2018-12-15T17:19:08.416Z,19.37
2018-12-15T17:21:41.524Z,19.83
2018-12-15T17:24:14.280Z,19.57
2018-12-15T17:26:47.315Z,17.07
2018-12-15T17:29:20.475Z,21.97
2018-12-15T17:31:53.004Z,19.23
2018-12-15T17:34:26.136Z,20.03
2018-12-15T17:36:59.178Z,20.90
2018-12-15T17:39:32.646Z,13.67
2018-12-15T17:42:05.537Z,16.70
2018-12-15T17:44:38.509Z,14.43
2018-12-15T17:47:11.789Z,19.23
2018-12-15T17:49:44.941Z,17.40
2018-12-15T17:52:17.900Z,18.17
2018-12-15T17:54:50.876Z,13.80
2018-12-15T17:57:24.084Z,21.27
2018-12-15T17:59:56.952Z,18.47
2018-12-15T18:02:30.048Z,20.67
2018-12-15T18:05:03.185Z,15.87
2018-12-15T18:07:36.340Z,20.83
2018-12-15T18:10:10.085Z,20.27
2018-12-15T18:12:43.140Z,18.87
2018-12-15T18:15:15.383Z,15.83
2018-12-15T18:17:47.728Z,18.63
2018-12-15T18:20:20.832Z,16.33
2018-12-15T18:22:53.811Z,17.83
2018-12-15T18:27:53.912Z,17.57
2018-12-15T18:30:27.002Z,18.87
2018-12-15T18:33:00.262Z,18.13
2018-12-15T18:35:33.326Z,18.27
2018-12-15T18:38:06.607Z,18.23
2018-12-15T18:40:39.049Z,18.37
2018-12-15T18:43:12.055Z,17.20
2018-12-15T18:45:45.051Z,18.17
2018-12-15T18:48:18.219Z,23.03
2018-12-15T18:50:51.244Z,16.93
2018-12-15T18:53:22.031Z,15.47
2018-12-15T18:55:55.182Z,20.47
2018-12-15T18:58:28.143Z,19.03
2018-12-15T19:00:59.235Z,18.10
2018-12-15T19:03:31.455Z,20.53
2018-12-15T19:06:04.779Z,18.30
2018-12-15T19:08:37.907Z,21.87
2018-12-15T19:11:10.952Z,22.40
2018-12-15T19:13:42.225Z,22.40
2018-12-15T19:16:15.302Z,17.57
2018-12-15T19:18:48.004Z,16.30
2018-12-15T19:21:23.148Z,21.00
2018-12-15T19:23:56.264Z,21.17
2018-12-15T19:28:59.069Z,19.70
2018-12-15T19:31:31.812Z,16.73
2018-12-15T19:34:04.961Z,21.63
2018-12-15T19:36:37.966Z,19.90
2018-12-15T19:39:11.331Z,19.43
2018-12-15T19:41:44.226Z,20.63
2018-12-15T19:44:17.256Z,19.90
2018-12-15T19:46:50.494Z,16.43
2018-12-15T19:49:23.065Z,19.47
2018-12-15T19:51:56.098Z,20.90
2018-12-15T19:54:29.335Z,20.47
2018-12-15T19:57:02.674Z,19.87
2018-12-15T19:59:35.630Z,23.60
2018-12-15T20:02:08.216Z,19.43
2018-12-15T20:04:41.267Z,19.13
2018-12-15T20:07:14.312Z,18.73
2018-12-15T20:09:47.595Z,20.73
2018-12-15T20:12:20.519Z,24.13
2018-12-15T20:14:53.664Z,20.27
2018-12-15T20:17:26.697Z,19.10
2018-12-15T20:19:59.078Z,20.63
2018-12-15T20:22:32.236Z,21.07
2018-12-15T20:25:05.551Z,20.77
2018-12-15T20:27:38.461Z,21.10
2018-12-15T20:30:11.672Z,19.77
2018-12-15T20:32:44.708Z,21.93
2018-12-15T20:35:18.092Z,22.93
2018-12-15T20:37:51.339Z,19.77
2018-12-15T20:40:23.795Z,20.47
2018-12-15T20:42:56.911Z,23.93
2018-12-15T20:45:30.133Z,22.33
2018-12-15T20:48:03.319Z,23.80
2018-12-15T20:50:36.224Z,21.23
2018-12-15T20:53:09.382Z,16.87
2018-12-15T20:55:42.448Z,18.90
2018-12-15T20:58:15.422Z,22.77
2018-12-15T21:00:48.722Z,23.57
2018-12-15T21:03:21.714Z,21.60
2018-12-15T21:05:54.815Z,17.47
2018-12-15T21:08:28.671Z,18.93
2018-12-15T21:11:00.995Z,18.37
2018-12-15T21:13:33.967Z,24.03
2018-12-15T21:16:07.685Z,21.23
2018-12-15T21:18:40.291Z,23.03
2018-12-15T21:21:13.807Z,20.47
2018-12-15T21:23:46.481Z,24.13
2018-12-15T21:26:19.503Z,24.20
2018-12-15T21:28:52.464Z,22.00
2018-12-15T21:31:25.572Z,20.23
2018-12-15T21:33:58.568Z,21.87
2018-12-15T21:36:31.585Z,20.73
2018-12-15T21:39:06.030Z,22.17
2018-12-15T21:41:39.126Z,21.17
2018-12-15T21:44:11.492Z,22.60
2018-12-15T21:46:43.807Z,20.53
2018-12-15T21:49:17.095Z,18.07
2018-12-15T21:51:56.110Z,20.70
2018-12-15T21:54:24.157Z,22.13
2018-12-15T21:56:56.401Z,22.63
2018-12-15T21:59:29.470Z,22.07
2018-12-15T22:02:02.469Z,22.10
2018-12-15T22:04:35.688Z,20.90
2018-12-15T22:07:06.386Z,18.23
2018-12-15T22:09:38.634Z,20.50
2018-12-15T22:12:11.426Z,22.50
2018-12-15T22:14:43.855Z,22.07
2018-12-15T22:17:16.204Z,19.60
2018-12-15T22:19:48.848Z,19.47
2018-12-15T22:22:20.953Z,24.93
2018-12-15T22:24:53.181Z,20.17
2018-12-15T22:27:26.020Z,26.70
2018-12-15T22:29:58.836Z,23.70
2018-12-15T22:32:31.181Z,24.03
2018-12-15T22:35:03.367Z,25.13
2018-12-15T22:37:35.535Z,24.90
2018-12-15T22:40:08.084Z,19.47
2018-12-15T22:42:40.445Z,20.53
2018-12-15T22:45:12.457Z,21.33
2018-12-15T22:47:44.549Z,23.00
2018-12-15T22:50:16.644Z,22.93
2018-12-15T22:52:48.423Z,24.43
2018-12-15T22:55:20.632Z,28.63
2018-12-15T22:57:52.576Z,28.30
2018-12-15T23:00:24.672Z,23.27
2018-12-15T23:02:56.870Z,24.53
2018-12-15T23:05:28.773Z,21.80
2018-12-15T23:08:01.031Z,22.13
2018-12-15T23:10:34.031Z,23.03
2018-12-15T23:13:07.322Z,24.97
2018-12-15T23:15:40.017Z,25.17
2018-12-15T23:18:12.595Z,19.70
2018-12-15T23:20:45.247Z,22.27
2018-12-15T23:23:17.611Z,30.20
2018-12-15T23:25:49.591Z,27.10
2018-12-15T23:28:21.740Z,25.40
2018-12-15T23:30:53.687Z,28.03
2018-12-15T23:35:54.553Z,27.13
2018-12-15T23:38:27.224Z,29.23
2018-12-15T23:40:59.147Z,29.30
2018-12-15T23:43:31.268Z,27.40
2018-12-15T23:46:03.421Z,33.20
2018-12-15T23:48:35.656Z,28.60
2018-12-15T23:51:07.692Z,22.03
2018-12-15T23:53:39.675Z,21.60
2018-12-15T23:56:11.465Z,26.80
2018-12-15T23:58:43.598Z,31.30
